This is the latest recevied weather packets stored in our database for station/object W9GWP. If no packets are shown the sender has not sent any weather packets the latest 10 day(s).
| Time | Temp. | Humidity | Pressure | Rain* | Wind** | Luminosity | Snow |
|---|---|---|---|---|---|---|---|
| 1788549795 | 30° C | 70% | 1040.3 hPa | 0 mm | - | 596 W/m² | - |
| 1788548890 | 29.44° C | 73% | 1040.5 hPa | 0 mm | - | 541 W/m² | - |
| 1788547989 | 29.44° C | 72% | 1040.7 hPa | 0 mm | - | 92 W/m² | - |
| 1788547085 | 28.89° C | 76% | 1040.9 hPa | 0 mm | - | 131 W/m² | - |
| 1788546182 | 27.22° C | 80% | 1041 hPa | 0 mm | - | 593 W/m² | - |
| 1788545278 | 26.11° C | 83% | 1041.3 hPa | 0 mm | - | 625 W/m² | - |
| 1788544377 | 25.56° C | 86% | 1041.3 hPa | 0 mm | - | 231 W/m² | - |
| 1788543475 | 23.89° C | 89% | 1041.1 hPa | 0 mm | - | 506 W/m² | - |
| 1788542570 | 22.78° C | 93% | 1041.4 hPa | 0 mm | - | 191 W/m² | - |
| 1788541669 | 22.78° C | 93% | 1042.4 hPa | 0.51 mm | - | 69 W/m² | - |
| 1788540770 | 22.78° C | 92% | 1043.5 hPa | 1.78 mm | - | 43 W/m² | - |
| 1788539867 | 23.89° C | 88% | 1044.3 hPa | 0 mm | - | 24 W/m² | - |
| 1788538963 | 25° C | 85% | 1043.7 hPa | 0 mm | - | 158 W/m² | - |
| 1788538059 | 23.89° C | 88% | 1044 hPa | 0 mm | - | 177 W/m² | - |
| 1788537154 | 23.89° C | 88% | 1043.3 hPa | 0 mm | - | 120 W/m² | - |
| 1788536249 | 22.78° C | 90% | 1043.7 hPa | 0 mm | - | 169 W/m² | - |
| 1788535347 | 23.33° C | 91% | 1043.7 hPa | 0 mm | - | 29 W/m² | - |
| 1788534444 | 23.33° C | 91% | 1044.3 hPa | 0 mm | - | 65 W/m² | - |
| 1788533538 | 23.33° C | 91% | 1043.8 hPa | 0 mm | - | 54 W/m² | - |
| 1788532636 | 24.44° C | 88% | 1043.3 hPa | 0 mm | - | 69 W/m² | - |
| 1788531731 | 24.44° C | 88% | 1042.2 hPa | 0 mm | - | 100 W/m² | - |
| 1788530828 | 24.44° C | 86% | 1042.1 hPa | 0 mm | - | 148 W/m² | - |
| 1788529923 | 24.44° C | 87% | 1042.6 hPa | 0 mm | - | 135 W/m² | - |
| 1788529019 | 23.89° C | 90% | 1042.7 hPa | 0 mm | - | 105 W/m² | - |
| 1788528116 | 23.33° C | 90% | 1042.4 hPa | 0 mm | - | 51 W/m² | - |
* Rain latest hour (hover to see other rain measurements)
** Current wind speed in m/s (hover to see current wind gust speed)